sensor_id;sensor_type;location;lat;lon;timestamp;temperature;humidity
19292;DHT22;9779;51.756;7.450;2023-04-24T00:00:09;11.40;1.00
19292;DHT22;9779;51.756;7.450;2023-04-24T00:02:36;11.40;1.00
19292;DHT22;9779;51.756;7.450;2023-04-24T00:05:05;11.30;1.00
19292;DHT22;9779;51.756;7.450;2023-04-24T00:07:31;11.40;49.60
19292;DHT22;9779;51.756;7.450;2023-04-24T00:09:56;11.40;1.00
19292;DHT22;9779;51.756;7.450;2023-04-24T00:12:22;11.30;1.00
19292;DHT22;9779;51.756;7.450;2023-04-24T00:14:48;11.30;1.00
19292;DHT22;9779;51.756;7.450;2023-04-24T00:17:13;11.40;1.00
19292;DHT22;9779;51.756;7.450;2023-04-24T00:19:39;11.30;1.00
19292;DHT22;9779;51.756;7.450;2023-04-24T00:22:05;11.30;1.00
19292;DHT22;9779;51.756;7.450;2023-04-24T00:24:30;11.30;1.00
19292;DHT22;9779;51.756;7.450;2023-04-24T00:26:56;11.20;1.00
19292;DHT22;9779;51.756;7.450;2023-04-24T00:29:22;11.20;1.00
19292;DHT22;9779;51.756;7.450;2023-04-24T00:31:47;11.20;1.00
19292;DHT22;9779;51.756;7.450;2023-04-24T00:34:13;11.20;1.00
19292;DHT22;9779;51.756;7.450;2023-04-24T00:36:39;11.10;1.00
19292;DHT22;9779;51.756;7.450;2023-04-24T00:39:04;11.10;1.00
19292;DHT22;9779;51.756;7.450;2023-04-24T00:41:30;11.10;1.00
19292;DHT22;9779;51.756;7.450;2023-04-24T00:43:55;11.10;1.00
19292;DHT22;9779;51.756;7.450;2023-04-24T00:46:21;11.10;1.00
19292;DHT22;9779;51.756;7.450;2023-04-24T00:48:47;11.10;1.00
19292;DHT22;9779;51.756;7.450;2023-04-24T00:51:13;11.10;1.00
19292;DHT22;9779;51.756;7.450;2023-04-24T00:53:38;11.10;11.90
19292;DHT22;9779;51.756;7.450;2023-04-24T00:56:04;11.10;1.00
19292;DHT22;9779;51.756;7.450;2023-04-24T00:58:32;11.10;1.00
19292;DHT22;9779;51.756;7.450;2023-04-24T01:00:58;11.10;99.90
19292;DHT22;9779;51.756;7.450;2023-04-24T01:03:30;11.10;99.90
19292;DHT22;9779;51.756;7.450;2023-04-24T01:05:57;11.10;1.00
19292;DHT22;9779;51.756;7.450;2023-04-24T01:08:26;11.10;19.30
19292;DHT22;9779;51.756;7.450;2023-04-24T01:10:53;11.10;1.00
19292;DHT22;9779;51.756;7.450;2023-04-24T01:13:19;11.10;1.00
19292;DHT22;9779;51.756;7.450;2023-04-24T01:15:46;11.10;1.00
19292;DHT22;9779;51.756;7.450;2023-04-24T01:18:12;11.10;71.00
19292;DHT22;9779;51.756;7.450;2023-04-24T01:20:42;11.10;1.00
19292;DHT22;9779;51.756;7.450;2023-04-24T01:23:10;11.10;1.00
19292;DHT22;9779;51.756;7.450;2023-04-24T01:25:36;11.10;1.00
19292;DHT22;9779;51.756;7.450;2023-04-24T01:28:02;11.10;1.00
19292;DHT22;9779;51.756;7.450;2023-04-24T01:30:28;11.00;99.90
19292;DHT22;9779;51.756;7.450;2023-04-24T01:32:53;11.00;99.90
19292;DHT22;9779;51.756;7.450;2023-04-24T01:35:20;11.00;99.90
19292;DHT22;9779;51.756;7.450;2023-04-24T01:37:46;11.00;99.90
19292;DHT22;9779;51.756;7.450;2023-04-24T01:40:12;11.00;1.00
19292;DHT22;9779;51.756;7.450;2023-04-24T01:42:37;11.00;1.00
19292;DHT22;9779;51.756;7.450;2023-04-24T01:45:04;10.90;1.00
19292;DHT22;9779;51.756;7.450;2023-04-24T01:47:31;10.90;1.00
19292;DHT22;9779;51.756;7.450;2023-04-24T01:49:57;10.80;1.00
19292;DHT22;9779;51.756;7.450;2023-04-24T01:52:23;10.80;1.00
19292;DHT22;9779;51.756;7.450;2023-04-24T01:54:49;10.70;1.00
19292;DHT22;9779;51.756;7.450;2023-04-24T01:57:14;10.70;1.00
19292;DHT22;9779;51.756;7.450;2023-04-24T01:59:42;10.80;59.60
19292;DHT22;9779;51.756;7.450;2023-04-24T02:02:07;10.70;26.20
19292;DHT22;9779;51.756;7.450;2023-04-24T02:04:33;10.60;77.80
19292;DHT22;9779;51.756;7.450;2023-04-24T02:06:59;10.60;99.90
19292;DHT22;9779;51.756;7.450;2023-04-24T02:09:24;10.50;99.90
19292;DHT22;9779;51.756;7.450;2023-04-24T02:11:50;10.50;99.90
19292;DHT22;9779;51.756;7.450;2023-04-24T02:14:16;10.50;99.90
19292;DHT22;9779;51.756;7.450;2023-04-24T02:16:42;10.50;99.90
19292;DHT22;9779;51.756;7.450;2023-04-24T02:19:07;10.50;99.90
19292;DHT22;9779;51.756;7.450;2023-04-24T02:21:33;10.30;99.90
19292;DHT22;9779;51.756;7.450;2023-04-24T02:23:59;10.30;99.90
19292;DHT22;9779;51.756;7.450;2023-04-24T02:26:24;10.30;99.90
19292;DHT22;9779;51.756;7.450;2023-04-24T02:28:50;10.30;99.90
19292;DHT22;9779;51.756;7.450;2023-04-24T02:31:16;10.20;99.90
19292;DHT22;9779;51.756;7.450;2023-04-24T02:33:41;10.20;99.90
19292;DHT22;9779;51.756;7.450;2023-04-24T02:36:07;10.20;99.90
19292;DHT22;9779;51.756;7.450;2023-04-24T02:38:32;10.10;99.90
19292;DHT22;9779;51.756;7.450;2023-04-24T02:40:58;10.10;1.00
19292;DHT22;9779;51.756;7.450;2023-04-24T02:43:23;10.10;1.00
19292;DHT22;9779;51.756;7.450;2023-04-24T02:45:49;10.10;1.00
19292;DHT22;9779;51.756;7.450;2023-04-24T02:48:15;10.10;1.00
19292;DHT22;9779;51.756;7.450;2023-04-24T02:50:40;10.00;1.00
19292;DHT22;9779;51.756;7.450;2023-04-24T02:53:06;10.00;1.00
19292;DHT22;9779;51.756;7.450;2023-04-24T02:55:31;10.00;1.00
19292;DHT22;9779;51.756;7.450;2023-04-24T02:57:57;10.00;1.00
19292;DHT22;9779;51.756;7.450;2023-04-24T03:00:23;10.00;1.00
19292;DHT22;9779;51.756;7.450;2023-04-24T03:02:48;10.00;1.00
19292;DHT22;9779;51.756;7.450;2023-04-24T03:05:15;9.90;1.00
19292;DHT22;9779;51.756;7.450;2023-04-24T03:07:41;9.90;1.00
19292;DHT22;9779;51.756;7.450;2023-04-24T03:10:07;9.90;1.00
19292;DHT22;9779;51.756;7.450;2023-04-24T03:12:33;9.90;1.00
19292;DHT22;9779;51.756;7.450;2023-04-24T03:14:58;9.90;1.00
19292;DHT22;9779;51.756;7.450;2023-04-24T03:17:24;9.80;1.00
19292;DHT22;9779;51.756;7.450;2023-04-24T03:19:49;9.90;1.00
19292;DHT22;9779;51.756;7.450;2023-04-24T03:22:15;9.90;1.00
19292;DHT22;9779;51.756;7.450;2023-04-24T03:24:41;9.80;1.00
19292;DHT22;9779;51.756;7.450;2023-04-24T03:27:06;9.80;1.00
19292;DHT22;9779;51.756;7.450;2023-04-24T03:29:32;9.80;1.00
19292;DHT22;9779;51.756;7.450;2023-04-24T03:31:57;9.80;1.00
19292;DHT22;9779;51.756;7.450;2023-04-24T03:34:23;9.80;1.00
19292;DHT22;9779;51.756;7.450;2023-04-24T03:36:48;9.80;1.00
19292;DHT22;9779;51.756;7.450;2023-04-24T03:39:14;9.80;1.00
19292;DHT22;9779;51.756;7.450;2023-04-24T03:41:39;9.70;1.00
19292;DHT22;9779;51.756;7.450;2023-04-24T03:44:05;9.70;1.00
19292;DHT22;9779;51.756;7.450;2023-04-24T03:46:31;9.70;1.00
19292;DHT22;9779;51.756;7.450;2023-04-24T03:48:56;9.70;1.00
19292;DHT22;9779;51.756;7.450;2023-04-24T03:51:22;9.70;1.00
19292;DHT22;9779;51.756;7.450;2023-04-24T03:53:48;9.70;1.00
19292;DHT22;9779;51.756;7.450;2023-04-24T03:56:14;9.70;1.00
19292;DHT22;9779;51.756;7.450;2023-04-24T03:58:40;9.70;1.00
19292;DHT22;9779;51.756;7.450;2023-04-24T04:01:05;9.60;1.00
19292;DHT22;9779;51.756;7.450;2023-04-24T04:03:31;9.70;1.00
19292;DHT22;9779;51.756;7.450;2023-04-24T04:05:57;9.60;1.00
19292;DHT22;9779;51.756;7.450;2023-04-24T04:08:22;9.70;1.00
19292;DHT22;9779;51.756;7.450;2023-04-24T04:10:48;9.70;1.00
19292;DHT22;9779;51.756;7.450;2023-04-24T04:13:13;9.70;1.00
19292;DHT22;9779;51.756;7.450;2023-04-24T04:15:39;9.70;1.00
19292;DHT22;9779;51.756;7.450;2023-04-24T04:18:05;9.70;1.00
19292;DHT22;9779;51.756;7.450;2023-04-24T04:20:31;9.70;1.00
19292;DHT22;9779;51.756;7.450;2023-04-24T04:22:56;9.70;1.00
19292;DHT22;9779;51.756;7.450;2023-04-24T04:25:22;9.70;1.00
19292;DHT22;9779;51.756;7.450;2023-04-24T04:27:48;9.70;1.00
19292;DHT22;9779;51.756;7.450;2023-04-24T04:30:14;9.70;1.00
19292;DHT22;9779;51.756;7.450;2023-04-24T04:32:40;9.70;1.00
19292;DHT22;9779;51.756;7.450;2023-04-24T04:35:06;9.70;1.00
19292;DHT22;9779;51.756;7.450;2023-04-24T04:37:35;9.70;1.00
19292;DHT22;9779;51.756;7.450;2023-04-24T04:40:01;9.70;1.00
19292;DHT22;9779;51.756;7.450;2023-04-24T04:42:31;9.70;1.00
19292;DHT22;9779;51.756;7.450;2023-04-24T04:44:58;9.70;1.00
19292;DHT22;9779;51.756;7.450;2023-04-24T04:47:23;9.70;1.00
19292;DHT22;9779;51.756;7.450;2023-04-24T04:49:49;9.70;1.00
19292;DHT22;9779;51.756;7.450;2023-04-24T04:52:17;9.70;1.00
19292;DHT22;9779;51.756;7.450;2023-04-24T04:54:43;9.70;1.00
19292;DHT22;9779;51.756;7.450;2023-04-24T04:57:08;9.70;1.00
19292;DHT22;9779;51.756;7.450;2023-04-24T04:59:34;9.70;1.00
19292;DHT22;9779;51.756;7.450;2023-04-24T05:02:00;9.70;1.00
19292;DHT22;9779;51.756;7.450;2023-04-24T05:04:25;9.70;1.00
19292;DHT22;9779;51.756;7.450;2023-04-24T05:06:51;9.70;1.00
19292;DHT22;9779;51.756;7.450;2023-04-24T05:09:17;9.70;1.00
19292;DHT22;9779;51.756;7.450;2023-04-24T05:11:43;9.70;1.00
19292;DHT22;9779;51.756;7.450;2023-04-24T05:14:08;9.70;1.00
19292;DHT22;9779;51.756;7.450;2023-04-24T05:16:34;9.70;1.00
19292;DHT22;9779;51.756;7.450;2023-04-24T05:19:00;9.70;1.00
19292;DHT22;9779;51.756;7.450;2023-04-24T05:21:25;9.70;1.00
19292;DHT22;9779;51.756;7.450;2023-04-24T05:23:52;9.70;1.00
19292;DHT22;9779;51.756;7.450;2023-04-24T05:26:17;9.70;1.00
19292;DHT22;9779;51.756;7.450;2023-04-24T05:28:43;9.70;1.00
19292;DHT22;9779;51.756;7.450;2023-04-24T05:31:08;9.70;1.00
19292;DHT22;9779;51.756;7.450;2023-04-24T05:33:34;9.70;1.00
19292;DHT22;9779;51.756;7.450;2023-04-24T05:36:00;9.70;1.00
19292;DHT22;9779;51.756;7.450;2023-04-24T05:38:25;9.70;1.00
19292;DHT22;9779;51.756;7.450;2023-04-24T05:40:51;9.70;1.00
19292;DHT22;9779;51.756;7.450;2023-04-24T05:43:16;9.70;1.00
19292;DHT22;9779;51.756;7.450;2023-04-24T05:45:42;9.70;1.00
19292;DHT22;9779;51.756;7.450;2023-04-24T05:48:07;9.70;1.00
19292;DHT22;9779;51.756;7.450;2023-04-24T05:50:33;9.70;1.00
19292;DHT22;9779;51.756;7.450;2023-04-24T05:52:58;9.70;1.00
19292;DHT22;9779;51.756;7.450;2023-04-24T05:55:25;9.70;1.00
19292;DHT22;9779;51.756;7.450;2023-04-24T05:57:51;9.70;1.00
19292;DHT22;9779;51.756;7.450;2023-04-24T06:00:16;9.70;1.00
19292;DHT22;9779;51.756;7.450;2023-04-24T06:02:44;9.70;1.00
19292;DHT22;9779;51.756;7.450;2023-04-24T06:05:10;9.70;1.00
19292;DHT22;9779;51.756;7.450;2023-04-24T06:07:36;9.70;1.00
19292;DHT22;9779;51.756;7.450;2023-04-24T06:10:01;9.70;1.00
19292;DHT22;9779;51.756;7.450;2023-04-24T06:12:27;9.70;1.00
19292;DHT22;9779;51.756;7.450;2023-04-24T06:14:53;9.70;1.00
19292;DHT22;9779;51.756;7.450;2023-04-24T06:17:21;9.70;1.00
19292;DHT22;9779;51.756;7.450;2023-04-24T06:19:46;9.70;1.00
19292;DHT22;9779;51.756;7.450;2023-04-24T06:22:12;9.60;1.00
19292;DHT22;9779;51.756;7.450;2023-04-24T06:24:39;9.70;1.00
19292;DHT22;9779;51.756;7.450;2023-04-24T06:27:04;9.70;1.00
19292;DHT22;9779;51.756;7.450;2023-04-24T06:29:30;9.70;1.00
19292;DHT22;9779;51.756;7.450;2023-04-24T06:31:55;9.70;1.00
19292;DHT22;9779;51.756;7.450;2023-04-24T06:34:21;9.60;1.00
19292;DHT22;9779;51.756;7.450;2023-04-24T06:36:47;9.60;1.00
19292;DHT22;9779;51.756;7.450;2023-04-24T06:39:12;9.60;1.00
19292;DHT22;9779;51.756;7.450;2023-04-24T06:41:38;9.60;1.00
19292;DHT22;9779;51.756;7.450;2023-04-24T06:44:05;9.50;1.00
19292;DHT22;9779;51.756;7.450;2023-04-24T06:46:30;9.50;1.00
19292;DHT22;9779;51.756;7.450;2023-04-24T06:48:56;9.50;1.00
19292;DHT22;9779;51.756;7.450;2023-04-24T06:51:23;9.50;1.00
19292;DHT22;9779;51.756;7.450;2023-04-24T06:53:49;9.50;1.00
19292;DHT22;9779;51.756;7.450;2023-04-24T06:56:15;9.50;1.00
19292;DHT22;9779;51.756;7.450;2023-04-24T06:58:41;9.40;1.00
19292;DHT22;9779;51.756;7.450;2023-04-24T07:01:07;9.40;1.00
19292;DHT22;9779;51.756;7.450;2023-04-24T07:03:32;9.50;1.00
19292;DHT22;9779;51.756;7.450;2023-04-24T07:05:58;9.50;1.00
19292;DHT22;9779;51.756;7.450;2023-04-24T07:08:23;9.50;1.00
19292;DHT22;9779;51.756;7.450;2023-04-24T07:10:49;9.60;1.00
19292;DHT22;9779;51.756;7.450;2023-04-24T07:13:16;9.60;1.00
19292;DHT22;9779;51.756;7.450;2023-04-24T07:15:42;9.50;1.00
19292;DHT22;9779;51.756;7.450;2023-04-24T07:18:08;9.50;1.00
19292;DHT22;9779;51.756;7.450;2023-04-24T07:20:33;9.50;1.00
19292;DHT22;9779;51.756;7.450;2023-04-24T07:22:59;9.50;1.00
19292;DHT22;9779;51.756;7.450;2023-04-24T07:25:24;9.50;1.00
19292;DHT22;9779;51.756;7.450;2023-04-24T07:27:50;9.50;1.00
19292;DHT22;9779;51.756;7.450;2023-04-24T07:30:16;9.50;1.00
19292;DHT22;9779;51.756;7.450;2023-04-24T07:32:41;9.50;1.00
19292;DHT22;9779;51.756;7.450;2023-04-24T07:35:07;9.40;1.00
19292;DHT22;9779;51.756;7.450;2023-04-24T07:37:35;9.50;1.00
19292;DHT22;9779;51.756;7.450;2023-04-24T07:40:00;9.50;1.00
19292;DHT22;9779;51.756;7.450;2023-04-24T07:42:26;9.50;1.00
19292;DHT22;9779;51.756;7.450;2023-04-24T07:44:51;9.50;1.00
19292;DHT22;9779;51.756;7.450;2023-04-24T07:47:17;9.50;1.00
19292;DHT22;9779;51.756;7.450;2023-04-24T07:49:42;9.50;1.00
19292;DHT22;9779;51.756;7.450;2023-04-24T07:52:08;9.70;1.00
19292;DHT22;9779;51.756;7.450;2023-04-24T07:54:34;9.60;1.00
19292;DHT22;9779;51.756;7.450;2023-04-24T07:56:59;9.50;1.00
19292;DHT22;9779;51.756;7.450;2023-04-24T07:59:26;9.50;1.00
19292;DHT22;9779;51.756;7.450;2023-04-24T08:01:51;9.50;1.00
19292;DHT22;9779;51.756;7.450;2023-04-24T08:04:17;9.50;1.00
19292;DHT22;9779;51.756;7.450;2023-04-24T08:06:43;9.40;1.00
19292;DHT22;9779;51.756;7.450;2023-04-24T08:09:09;9.40;1.00
19292;DHT22;9779;51.756;7.450;2023-04-24T08:11:35;9.50;1.00
19292;DHT22;9779;51.756;7.450;2023-04-24T08:14:00;9.60;99.90
19292;DHT22;9779;51.756;7.450;2023-04-24T08:16:27;9.60;1.00
19292;DHT22;9779;51.756;7.450;2023-04-24T08:18:53;9.50;1.00
19292;DHT22;9779;51.756;7.450;2023-04-24T08:21:18;9.40;1.00
19292;DHT22;9779;51.756;7.450;2023-04-24T08:23:45;9.40;1.00
19292;DHT22;9779;51.756;7.450;2023-04-24T08:26:11;9.40;1.00
19292;DHT22;9779;51.756;7.450;2023-04-24T08:28:37;9.40;1.00
19292;DHT22;9779;51.756;7.450;2023-04-24T08:31:03;9.30;1.00
19292;DHT22;9779;51.756;7.450;2023-04-24T08:33:29;9.30;1.00
19292;DHT22;9779;51.756;7.450;2023-04-24T08:36:04;9.40;1.00
19292;DHT22;9779;51.756;7.450;2023-04-24T08:38:30;9.20;1.00
19292;DHT22;9779;51.756;7.450;2023-04-24T08:41:00;9.20;1.00
19292;DHT22;9779;51.756;7.450;2023-04-24T08:43:27;9.30;1.00
19292;DHT22;9779;51.756;7.450;2023-04-24T08:45:54;9.30;1.00
19292;DHT22;9779;51.756;7.450;2023-04-24T08:48:22;9.40;1.00
19292;DHT22;9779;51.756;7.450;2023-04-24T08:50:51;9.40;1.00
19292;DHT22;9779;51.756;7.450;2023-04-24T08:53:18;9.40;1.00
19292;DHT22;9779;51.756;7.450;2023-04-24T08:55:47;9.50;1.00
19292;DHT22;9779;51.756;7.450;2023-04-24T08:58:13;9.60;1.00
19292;DHT22;9779;51.756;7.450;2023-04-24T09:00:39;9.60;1.00
19292;DHT22;9779;51.756;7.450;2023-04-24T09:03:09;9.60;1.00
19292;DHT22;9779;51.756;7.450;2023-04-24T09:05:36;9.50;1.00
19292;DHT22;9779;51.756;7.450;2023-04-24T09:08:02;9.50;1.00
19292;DHT22;9779;51.756;7.450;2023-04-24T09:10:27;9.50;1.00
19292;DHT22;9779;51.756;7.450;2023-04-24T09:12:56;9.50;1.00
19292;DHT22;9779;51.756;7.450;2023-04-24T09:15:24;9.40;1.00
19292;DHT22;9779;51.756;7.450;2023-04-24T09:17:50;9.40;1.00
19292;DHT22;9779;51.756;7.450;2023-04-24T09:20:15;9.20;1.00
19292;DHT22;9779;51.756;7.450;2023-04-24T09:22:42;9.20;80.40
19292;DHT22;9779;51.756;7.450;2023-04-24T09:25:09;9.30;99.90
19292;DHT22;9779;51.756;7.450;2023-04-24T09:27:42;9.20;99.90
19292;DHT22;9779;51.756;7.450;2023-04-24T09:30:09;9.20;99.90
19292;DHT22;9779;51.756;7.450;2023-04-24T09:32:34;9.10;99.90
19292;DHT22;9779;51.756;7.450;2023-04-24T09:35:14;9.00;99.90
19292;DHT22;9779;51.756;7.450;2023-04-24T09:37:42;9.10;99.90
19292;DHT22;9779;51.756;7.450;2023-04-24T09:40:13;9.10;99.90
19292;DHT22;9779;51.756;7.450;2023-04-24T09:42:40;9.10;99.90
19292;DHT22;9779;51.756;7.450;2023-04-24T09:45:09;9.10;99.90
19292;DHT22;9779;51.756;7.450;2023-04-24T09:47:39;9.20;99.90
19292;DHT22;9779;51.756;7.450;2023-04-24T09:50:16;9.30;99.90
19292;DHT22;9779;51.756;7.450;2023-04-24T09:52:47;9.30;99.90
19292;DHT22;9779;51.756;7.450;2023-04-24T09:55:20;9.30;99.90
19292;DHT22;9779;51.756;7.450;2023-04-24T10:00:30;9.20;99.90
19292;DHT22;9779;51.756;7.450;2023-04-24T10:02:57;9.30;99.90
19292;DHT22;9779;51.756;7.450;2023-04-24T10:05:24;9.30;99.90
19292;DHT22;9779;51.756;7.450;2023-04-24T10:07:51;9.30;99.90
19292;DHT22;9779;51.756;7.450;2023-04-24T10:10:16;9.20;99.90
19292;DHT22;9779;51.756;7.450;2023-04-24T10:12:43;9.20;99.90
19292;DHT22;9779;51.756;7.450;2023-04-24T10:15:10;9.10;99.90
19292;DHT22;9779;51.756;7.450;2023-04-24T10:17:38;9.20;99.90
19292;DHT22;9779;51.756;7.450;2023-04-24T10:20:05;9.10;99.90
19292;DHT22;9779;51.756;7.450;2023-04-24T10:22:32;9.10;99.90
19292;DHT22;9779;51.756;7.450;2023-04-24T10:24:59;9.20;99.90
19292;DHT22;9779;51.756;7.450;2023-04-24T10:27:26;9.20;99.90
19292;DHT22;9779;51.756;7.450;2023-04-24T10:29:53;9.10;99.90
19292;DHT22;9779;51.756;7.450;2023-04-24T10:32:19;9.10;99.90
19292;DHT22;9779;51.756;7.450;2023-04-24T10:34:44;9.00;99.90
19292;DHT22;9779;51.756;7.450;2023-04-24T10:37:10;8.90;99.90
19292;DHT22;9779;51.756;7.450;2023-04-24T10:39:36;9.00;99.90
19292;DHT22;9779;51.756;7.450;2023-04-24T10:42:14;8.90;99.90
19292;DHT22;9779;51.756;7.450;2023-04-24T10:44:40;8.90;99.90
19292;DHT22;9779;51.756;7.450;2023-04-24T10:47:13;8.80;99.90
19292;DHT22;9779;51.756;7.450;2023-04-24T10:49:39;8.90;99.90
19292;DHT22;9779;51.756;7.450;2023-04-24T10:52:05;8.80;99.90
19292;DHT22;9779;51.756;7.450;2023-04-24T10:54:36;8.80;99.90
19292;DHT22;9779;51.756;7.450;2023-04-24T11:00:15;8.90;99.90
19292;DHT22;9779;51.756;7.450;2023-04-24T11:02:41;8.90;99.90
19292;DHT22;9779;51.756;7.450;2023-04-24T11:05:17;8.90;99.90
19292;DHT22;9779;51.756;7.450;2023-04-24T11:08:12;8.90;99.90
19292;DHT22;9779;51.756;7.450;2023-04-24T11:10:45;8.90;99.90
19292;DHT22;9779;51.756;7.450;2023-04-24T11:13:17;8.90;99.90
19292;DHT22;9779;51.756;7.450;2023-04-24T11:19:02;8.80;99.90
19292;DHT22;9779;51.756;7.450;2023-04-24T11:21:41;8.70;99.90
19292;DHT22;9779;51.756;7.450;2023-04-24T11:27:18;8.80;99.90
19292;DHT22;9779;51.756;7.450;2023-04-24T11:32:42;8.70;99.90
19292;DHT22;9779;51.756;7.450;2023-04-24T11:35:21;8.70;99.90
19292;DHT22;9779;51.756;7.450;2023-04-24T11:37:52;8.70;99.90
19292;DHT22;9779;51.756;7.450;2023-04-24T11:40:19;8.80;99.90
19292;DHT22;9779;51.756;7.450;2023-04-24T11:42:47;8.70;99.90
19292;DHT22;9779;51.756;7.450;2023-04-24T11:45:14;8.80;99.90
19292;DHT22;9779;51.756;7.450;2023-04-24T11:47:43;8.70;99.90
19292;DHT22;9779;51.756;7.450;2023-04-24T11:50:13;8.80;99.90
19292;DHT22;9779;51.756;7.450;2023-04-24T11:52:46;8.80;99.90
19292;DHT22;9779;51.756;7.450;2023-04-24T11:57:43;9.00;99.90
19292;DHT22;9779;51.756;7.450;2023-04-24T12:00:36;9.00;99.90
19292;DHT22;9779;51.756;7.450;2023-04-24T12:03:19;9.10;99.90
19292;DHT22;9779;51.756;7.450;2023-04-24T12:05:44;9.10;99.90
19292;DHT22;9779;51.756;7.450;2023-04-24T12:08:10;9.20;99.90
19292;DHT22;9779;51.756;7.450;2023-04-24T12:10:36;9.10;99.90
19292;DHT22;9779;51.756;7.450;2023-04-24T12:13:01;9.10;99.90
19292;DHT22;9779;51.756;7.450;2023-04-24T12:15:27;9.10;99.90
19292;DHT22;9779;51.756;7.450;2023-04-24T12:17:55;9.00;99.90
19292;DHT22;9779;51.756;7.450;2023-04-24T12:20:29;9.00;99.90
19292;DHT22;9779;51.756;7.450;2023-04-24T12:22:57;9.00;99.90
19292;DHT22;9779;51.756;7.450;2023-04-24T12:25:25;9.00;99.90
19292;DHT22;9779;51.756;7.450;2023-04-24T12:30:29;9.30;99.90
19292;DHT22;9779;51.756;7.450;2023-04-24T12:32:58;9.40;99.90
19292;DHT22;9779;51.756;7.450;2023-04-24T12:35:26;9.50;99.90
19292;DHT22;9779;51.756;7.450;2023-04-24T12:37:52;9.60;99.90
19292;DHT22;9779;51.756;7.450;2023-04-24T12:40:19;9.60;23.10
19292;DHT22;9779;51.756;7.450;2023-04-24T12:42:47;9.60;29.50
19292;DHT22;9779;51.756;7.450;2023-04-24T12:45:13;9.50;61.30
19292;DHT22;9779;51.756;7.450;2023-04-24T12:47:40;9.50;93.70
19292;DHT22;9779;51.756;7.450;2023-04-24T12:50:10;9.40;39.70
19292;DHT22;9779;51.756;7.450;2023-04-24T12:52:36;9.30;34.90
19292;DHT22;9779;51.756;7.450;2023-04-24T12:55:03;9.30;1.00
19292;DHT22;9779;51.756;7.450;2023-04-24T12:57:30;9.20;1.00
19292;DHT22;9779;51.756;7.450;2023-04-24T12:59:57;9.20;1.00
19292;DHT22;9779;51.756;7.450;2023-04-24T13:02:24;9.20;1.00
19292;DHT22;9779;51.756;7.450;2023-04-24T13:04:50;9.20;1.00
19292;DHT22;9779;51.756;7.450;2023-04-24T13:07:16;9.20;1.00
19292;DHT22;9779;51.756;7.450;2023-04-24T13:09:43;9.20;1.00
19292;DHT22;9779;51.756;7.450;2023-04-24T13:12:10;9.30;1.00
19292;DHT22;9779;51.756;7.450;2023-04-24T13:14:36;9.30;1.00
19292;DHT22;9779;51.756;7.450;2023-04-24T13:17:02;9.40;1.00
19292;DHT22;9779;51.756;7.450;2023-04-24T13:19:28;9.30;1.00
19292;DHT22;9779;51.756;7.450;2023-04-24T13:21:55;9.40;1.00
19292;DHT22;9779;51.756;7.450;2023-04-24T13:24:21;9.50;1.00
19292;DHT22;9779;51.756;7.450;2023-04-24T13:26:50;9.50;1.00
19292;DHT22;9779;51.756;7.450;2023-04-24T13:29:16;9.60;1.00
19292;DHT22;9779;51.756;7.450;2023-04-24T13:31:41;9.60;99.90
19292;DHT22;9779;51.756;7.450;2023-04-24T13:34:07;9.50;99.90
19292;DHT22;9779;51.756;7.450;2023-04-24T13:36:33;9.50;99.90
19292;DHT22;9779;51.756;7.450;2023-04-24T13:38:58;9.50;99.90
19292;DHT22;9779;51.756;7.450;2023-04-24T13:41:24;9.50;99.90
19292;DHT22;9779;51.756;7.450;2023-04-24T13:43:49;9.60;99.90
19292;DHT22;9779;51.756;7.450;2023-04-24T13:46:16;9.80;99.90
19292;DHT22;9779;51.756;7.450;2023-04-24T13:48:42;9.80;99.90
19292;DHT22;9779;51.756;7.450;2023-04-24T13:51:07;9.80;99.90
19292;DHT22;9779;51.756;7.450;2023-04-24T13:53:33;9.80;99.90
19292;DHT22;9779;51.756;7.450;2023-04-24T13:56:01;9.90;99.90
19292;DHT22;9779;51.756;7.450;2023-04-24T13:58:27;9.70;99.90
19292;DHT22;9779;51.756;7.450;2023-04-24T14:00:53;9.70;99.90
19292;DHT22;9779;51.756;7.450;2023-04-24T14:03:18;9.70;99.90
19292;DHT22;9779;51.756;7.450;2023-04-24T14:05:44;9.60;99.90
19292;DHT22;9779;51.756;7.450;2023-04-24T14:08:09;9.70;1.00
19292;DHT22;9779;51.756;7.450;2023-04-24T14:10:35;9.60;1.00
19292;DHT22;9779;51.756;7.450;2023-04-24T14:13:01;9.70;1.00
19292;DHT22;9779;51.756;7.450;2023-04-24T14:15:26;9.80;1.00
19292;DHT22;9779;51.756;7.450;2023-04-24T14:17:52;9.80;99.90
19292;DHT22;9779;51.756;7.450;2023-04-24T14:20:17;9.70;99.90
19292;DHT22;9779;51.756;7.450;2023-04-24T14:22:43;9.70;99.90
19292;DHT22;9779;51.756;7.450;2023-04-24T14:25:09;9.70;1.00
19292;DHT22;9779;51.756;7.450;2023-04-24T14:27:34;9.60;1.00
19292;DHT22;9779;51.756;7.450;2023-04-24T14:30:00;9.50;1.00
19292;DHT22;9779;51.756;7.450;2023-04-24T14:32:26;9.50;1.00
19292;DHT22;9779;51.756;7.450;2023-04-24T14:34:52;9.40;1.00
19292;DHT22;9779;51.756;7.450;2023-04-24T14:37:17;9.40;1.00
19292;DHT22;9779;51.756;7.450;2023-04-24T14:39:43;9.30;1.00
19292;DHT22;9779;51.756;7.450;2023-04-24T14:42:09;9.30;1.00
19292;DHT22;9779;51.756;7.450;2023-04-24T14:44:34;9.20;1.00
19292;DHT22;9779;51.756;7.450;2023-04-24T14:47:00;9.20;44.80
19292;DHT22;9779;51.756;7.450;2023-04-24T14:49:25;9.20;1.00
19292;DHT22;9779;51.756;7.450;2023-04-24T14:51:51;9.30;1.00
19292;DHT22;9779;51.756;7.450;2023-04-24T14:54:17;9.30;1.00
19292;DHT22;9779;51.756;7.450;2023-04-24T14:56:42;9.20;1.00
19292;DHT22;9779;51.756;7.450;2023-04-24T14:59:09;9.10;1.00
19292;DHT22;9779;51.756;7.450;2023-04-24T15:01:35;9.20;1.00
19292;DHT22;9779;51.756;7.450;2023-04-24T15:04:01;9.10;1.00
19292;DHT22;9779;51.756;7.450;2023-04-24T15:06:26;9.10;1.00
19292;DHT22;9779;51.756;7.450;2023-04-24T15:08:52;9.00;1.00
19292;DHT22;9779;51.756;7.450;2023-04-24T15:11:17;8.90;1.00
19292;DHT22;9779;51.756;7.450;2023-04-24T15:13:43;8.80;1.00
19292;DHT22;9779;51.756;7.450;2023-04-24T15:16:10;8.80;1.00
19292;DHT22;9779;51.756;7.450;2023-04-24T15:18:36;8.70;1.00
19292;DHT22;9779;51.756;7.450;2023-04-24T15:21:02;8.70;1.00
19292;DHT22;9779;51.756;7.450;2023-04-24T15:23:27;8.70;1.00
19292;DHT22;9779;51.756;7.450;2023-04-24T15:25:53;8.80;1.00
19292;DHT22;9779;51.756;7.450;2023-04-24T15:28:18;8.90;1.00
19292;DHT22;9779;51.756;7.450;2023-04-24T15:30:44;9.00;1.00
19292;DHT22;9779;51.756;7.450;2023-04-24T15:33:09;9.00;1.00
19292;DHT22;9779;51.756;7.450;2023-04-24T15:35:35;9.10;1.00
19292;DHT22;9779;51.756;7.450;2023-04-24T15:38:01;9.10;1.00
19292;DHT22;9779;51.756;7.450;2023-04-24T15:40:27;9.10;1.00
19292;DHT22;9779;51.756;7.450;2023-04-24T15:42:53;9.10;1.00
19292;DHT22;9779;51.756;7.450;2023-04-24T15:45:18;9.10;1.00
19292;DHT22;9779;51.756;7.450;2023-04-24T15:47:45;9.20;1.00
19292;DHT22;9779;51.756;7.450;2023-04-24T15:50:14;9.20;1.00
19292;DHT22;9779;51.756;7.450;2023-04-24T15:52:42;9.20;1.00
19292;DHT22;9779;51.756;7.450;2023-04-24T15:55:07;9.30;1.00
19292;DHT22;9779;51.756;7.450;2023-04-24T15:57:33;9.30;1.00
19292;DHT22;9779;51.756;7.450;2023-04-24T15:59:59;9.30;1.00
19292;DHT22;9779;51.756;7.450;2023-04-24T16:02:25;9.30;1.00
19292;DHT22;9779;51.756;7.450;2023-04-24T16:04:51;9.20;1.00
19292;DHT22;9779;51.756;7.450;2023-04-24T16:07:17;9.20;1.00
19292;DHT22;9779;51.756;7.450;2023-04-24T16:09:43;9.10;1.00
19292;DHT22;9779;51.756;7.450;2023-04-24T16:12:09;9.10;1.00
19292;DHT22;9779;51.756;7.450;2023-04-24T16:14:38;9.00;1.00
19292;DHT22;9779;51.756;7.450;2023-04-24T16:17:04;8.90;1.00
19292;DHT22;9779;51.756;7.450;2023-04-24T16:19:30;9.00;1.00
19292;DHT22;9779;51.756;7.450;2023-04-24T16:21:56;8.90;1.00
19292;DHT22;9779;51.756;7.450;2023-04-24T16:24:22;8.90;1.00